首页
METAR-TAF:

METAR-TAF

机场 :

法鲁, 育康省, 加拿大

纬度: 62-12N, 经度: 133-22W, 海拔: 717米

当前天气观测

该预报发布于7小时和6分钟前的23:00 UTC
风速11节,风向西转西南,在南转西南西转西北之间变化
温度 -1°C
湿度 31%
气压 1002 hPa
能見度: 48.3公里
散云层高于6300英尺
散云层高于10000英尺

METAR: CZFA 222300Z 25011KT 210V290 30SM SCT063 SCT100 M01/M16 A2958 RMK SC4AC1 AC TR LAST STFD OBS/NXT 231500Z SLP063

时间: 22:06 (06:06 UTC)

预报

该预报发布于12小时和28分钟前的17:38 UTC
预报有效从22日的 18点(UTC)到 22日的 23点(UTC)
风速3节,风向多变
能見度: 10公里
散云层高于6000英尺
散云层高于10000英尺
短暂存在
从 22日的 18点(UTC)到 22日的 23点(UTC)
能見度: 6.4公里
多云层高于5000英尺
多云层高于10000英尺
小阵雪
成为
从 22日的 18点(UTC)到 22日的 20点(UTC)
风速8节,风向西

TAF: CZFA 221738Z 2218/2223 VRB03KT P6SM SCT060 SCT100 TEMPO 2218/2223 4SM -SHSN BKN050 BKN100 BECMG 2218/2220 27008KT RMK NXT FCST WILL BE ISSUED AT 231645Z

超过4000个机场的气象观测和天气预报(METAR&TAF报告)。

可查询的气象台以黄色和红色小点在地图上表示。

将鼠标移到小点上方,可查看气象台名称。

然后点击查看天气观测和预报。

如需切换地图:点击带黑十字的绿色按钮放大地图;点击带横线的绿色按钮缩小地图;或者点击绿色箭头查看邻近地区的地图。


METAR-TAF: